createdAt,value
2016-10-23T00:00:48.104Z,-46
2016-10-23T00:01:48.317Z,-46
2016-10-23T00:02:48.117Z,-49
2016-10-23T00:03:48.081Z,-49
2016-10-23T00:04:48.204Z,-50
2016-10-23T00:05:48.131Z,-49
2016-10-23T00:06:51.128Z,-52
2016-10-23T00:07:48.757Z,-50
2016-10-23T00:08:48.120Z,-48
2016-10-23T00:09:48.117Z,-50
2016-10-23T00:10:48.127Z,-50
2016-10-23T00:11:48.186Z,-48
2016-10-23T00:12:48.043Z,-48
2016-10-23T00:13:49.275Z,-51
2016-10-23T00:14:48.092Z,-46
2016-10-23T00:15:48.075Z,-49
2016-10-23T00:16:48.085Z,-49
2016-10-23T00:17:48.216Z,-49
2016-10-23T00:18:48.102Z,-50
2016-10-23T00:19:48.995Z,-49
2016-10-23T00:20:48.931Z,-48
2016-10-23T00:21:48.188Z,-49
2016-10-23T00:22:48.847Z,-48
2016-10-23T00:23:48.811Z,-51
2016-10-23T00:24:48.172Z,-47
2016-10-23T00:25:48.109Z,-48
2016-10-23T00:26:48.135Z,-49
2016-10-23T00:27:49.020Z,-51
2016-10-23T00:28:48.703Z,-49
2016-10-23T00:29:48.506Z,-48
2016-10-23T00:30:48.114Z,-48
2016-10-23T00:31:48.101Z,-49
2016-10-23T00:32:48.167Z,-46
2016-10-23T00:33:48.089Z,-49
2016-10-23T00:34:49.148Z,-49
2016-10-23T00:35:49.809Z,-48
2016-10-23T00:36:48.375Z,-48
2016-10-23T00:37:48.834Z,-49
2016-10-23T00:38:48.079Z,-49
2016-10-23T00:39:48.908Z,-48
2016-10-23T00:40:48.156Z,-48
2016-10-23T00:41:48.146Z,-49
2016-10-23T00:42:48.118Z,-48
2016-10-23T00:43:48.145Z,-48
2016-10-23T00:44:48.447Z,-49
2016-10-23T00:45:48.143Z,-49
2016-10-23T00:46:48.227Z,-50
2016-10-23T00:47:48.073Z,-48
2016-10-23T00:48:48.173Z,-48
2016-10-23T00:49:48.193Z,-49
2016-10-23T00:50:48.768Z,-49
2016-10-23T00:51:49.472Z,-49
2016-10-23T00:52:49.437Z,-50
2016-10-23T00:53:48.150Z,-50
2016-10-23T00:54:49.398Z,-50
2016-10-23T00:55:49.673Z,-46
2016-10-23T00:56:48.183Z,-46
2016-10-23T00:57:48.080Z,-48
2016-10-23T00:58:48.085Z,-47
2016-10-23T00:59:48.541Z,-51
2016-10-23T01:00:48.123Z,-46
2016-10-23T01:01:48.138Z,-49
2016-10-23T01:02:48.268Z,-48
2016-10-23T01:03:48.121Z,-49
2016-10-23T01:04:48.167Z,-46
2016-10-23T01:05:48.125Z,-49
2016-10-23T01:06:48.194Z,-48
2016-10-23T01:07:48.145Z,-48
2016-10-23T01:08:48.163Z,-48
2016-10-23T01:09:48.886Z,-45
2016-10-23T01:10:48.180Z,-47
2016-10-23T01:11:48.492Z,-46
2016-10-23T01:12:49.187Z,-46
2016-10-23T01:13:48.173Z,-48
2016-10-23T01:14:48.275Z,-49
2016-10-23T01:15:50.007Z,-48
2016-10-23T01:16:48.799Z,-44
2016-10-23T01:17:48.162Z,-46
2016-10-23T01:18:48.852Z,-48
2016-10-23T01:19:48.755Z,-49
2016-10-23T01:20:48.195Z,-48
2016-10-23T01:21:48.636Z,-48
2016-10-23T01:22:49.110Z,-50
2016-10-23T01:23:48.135Z,-49
2016-10-23T01:24:48.125Z,-50
2016-10-23T01:25:48.188Z,-49
2016-10-23T01:26:48.805Z,-48
2016-10-23T01:27:48.212Z,-49
2016-10-23T01:28:48.996Z,-50
2016-10-23T01:29:48.180Z,-48
2016-10-23T01:30:48.233Z,-51
2016-10-23T01:31:48.208Z,-48
2016-10-23T01:32:48.220Z,-49
2016-10-23T01:33:48.828Z,-50
2016-10-23T01:34:48.499Z,-47
2016-10-23T01:35:48.146Z,-49
2016-10-23T01:36:48.133Z,-49
2016-10-23T01:37:49.679Z,-49
2016-10-23T01:38:48.113Z,-50
2016-10-23T01:39:48.402Z,-50
2016-10-23T01:40:48.179Z,-46
2016-10-23T01:41:49.155Z,-48
2016-10-23T01:42:48.203Z,-49
2016-10-23T01:43:48.251Z,-48
2016-10-23T01:44:48.138Z,-48
2016-10-23T01:45:48.191Z,-49
2016-10-23T01:46:50.176Z,-48
2016-10-23T01:47:49.330Z,-49
2016-10-23T01:48:48.264Z,-49
2016-10-23T01:49:48.159Z,-48
2016-10-23T01:50:48.258Z,-49
2016-10-23T01:51:48.208Z,-49
2016-10-23T01:52:48.290Z,-48
2016-10-23T01:53:48.207Z,-49
2016-10-23T01:54:48.905Z,-48
2016-10-23T01:55:48.181Z,-49
2016-10-23T01:56:48.674Z,-49
2016-10-23T01:57:48.159Z,-48
2016-10-23T01:58:48.562Z,-49
2016-10-23T01:59:48.226Z,-48
2016-10-23T02:00:48.219Z,-50
2016-10-23T02:01:48.329Z,-47
2016-10-23T02:02:48.191Z,-46
2016-10-23T02:03:48.428Z,-48
2016-10-23T02:04:48.203Z,-48
2016-10-23T02:05:48.181Z,-48
2016-10-23T02:06:48.208Z,-49
2016-10-23T02:07:48.220Z,-49
2016-10-23T02:08:48.201Z,-50
2016-10-23T02:09:48.239Z,-49
2016-10-23T02:10:48.253Z,-49
2016-10-23T02:11:48.236Z,-48
2016-10-23T02:12:48.188Z,-48
2016-10-23T02:13:48.194Z,-49
2016-10-23T02:14:48.200Z,-48
2016-10-23T02:15:48.236Z,-45
2016-10-23T02:16:48.216Z,-48
2016-10-23T02:17:48.194Z,-50
2016-10-23T02:18:48.152Z,-48
2016-10-23T02:19:48.231Z,-48
2016-10-23T02:20:48.143Z,-48
2016-10-23T02:21:48.150Z,-48
2016-10-23T02:22:48.284Z,-48
2016-10-23T02:23:48.243Z,-46
2016-10-23T02:24:48.272Z,-46
2016-10-23T02:25:48.283Z,-48
2016-10-23T02:26:48.253Z,-48
2016-10-23T02:27:48.335Z,-49
2016-10-23T02:28:48.230Z,-49
2016-10-23T02:29:48.252Z,-49
2016-10-23T02:30:48.258Z,-49
2016-10-23T02:31:48.243Z,-50
2016-10-23T02:32:48.293Z,-46
2016-10-23T02:33:48.261Z,-49
2016-10-23T02:34:48.198Z,-48
2016-10-23T02:35:48.243Z,-48
2016-10-23T02:36:48.209Z,-48
2016-10-23T02:37:48.244Z,-48
2016-10-23T02:38:48.236Z,-47
2016-10-23T02:39:48.274Z,-47
2016-10-23T02:40:48.201Z,-46
2016-10-23T02:41:48.240Z,-49
2016-10-23T02:42:48.195Z,-50
2016-10-23T02:43:48.268Z,-47
2016-10-23T02:44:48.335Z,-48
2016-10-23T02:45:48.264Z,-49
2016-10-23T02:46:48.160Z,-49
2016-10-23T02:47:48.211Z,-49
2016-10-23T02:48:48.204Z,-49
2016-10-23T02:49:48.266Z,-49
2016-10-23T02:50:48.243Z,-49
2016-10-23T02:51:48.207Z,-49
2016-10-23T02:52:48.332Z,-49
2016-10-23T02:53:48.288Z,-49
2016-10-23T02:54:48.271Z,-49
2016-10-23T02:55:48.276Z,-48
2016-10-23T02:56:48.300Z,-48
2016-10-23T02:57:48.301Z,-46
2016-10-23T02:58:48.252Z,-48
2016-10-23T02:59:48.281Z,-47
2016-10-23T03:00:48.173Z,-46
2016-10-23T03:01:48.193Z,-45
2016-10-23T03:02:48.262Z,-47
2016-10-23T03:03:48.236Z,-47
2016-10-23T03:04:48.405Z,-48
2016-10-23T03:05:48.218Z,-46
2016-10-23T03:06:48.196Z,-46
2016-10-23T03:07:48.220Z,-46
2016-10-23T03:08:48.234Z,-44
2016-10-23T03:09:48.329Z,-46
2016-10-23T03:10:48.335Z,-46
2016-10-23T03:11:48.249Z,-45
2016-10-23T03:12:48.281Z,-45
2016-10-23T03:13:48.229Z,-46
2016-10-23T03:14:48.269Z,-43
2016-10-23T03:15:48.287Z,-46
2016-10-23T03:16:48.227Z,-47
2016-10-23T03:17:48.278Z,-46
2016-10-23T03:18:48.294Z,-46
2016-10-23T03:19:48.257Z,-45
2016-10-23T03:20:48.347Z,-46
2016-10-23T03:21:48.155Z,-47
2016-10-23T03:22:48.219Z,-47
2016-10-23T03:23:48.257Z,-45
2016-10-23T03:24:48.234Z,-46
2016-10-23T03:25:48.425Z,-46
2016-10-23T03:26:48.215Z,-47
2016-10-23T03:27:48.776Z,-48
2016-10-23T03:28:48.247Z,-47
2016-10-23T03:29:48.238Z,-47
2016-10-23T03:30:48.281Z,-48
2016-10-23T03:31:48.243Z,-48
2016-10-23T03:32:48.264Z,-48
2016-10-23T03:33:48.220Z,-48
2016-10-23T03:34:48.243Z,-49
2016-10-23T03:35:48.276Z,-48
2016-10-23T03:36:48.226Z,-49
2016-10-23T03:37:48.338Z,-48
2016-10-23T03:38:48.227Z,-48
2016-10-23T03:39:48.233Z,-48
2016-10-23T03:40:48.205Z,-49
2016-10-23T03:41:48.215Z,-49
2016-10-23T03:42:48.259Z,-49
2016-10-23T03:43:48.262Z,-49
2016-10-23T03:44:48.268Z,-49
2016-10-23T03:45:48.246Z,-46
2016-10-23T03:46:48.198Z,-49
2016-10-23T03:47:48.220Z,-49
2016-10-23T03:48:48.302Z,-49
2016-10-23T03:49:48.219Z,-50
2016-10-23T03:50:48.181Z,-50
2016-10-23T03:51:48.248Z,-48
2016-10-23T03:52:48.226Z,-47
2016-10-23T03:53:48.269Z,-49
2016-10-23T03:54:48.341Z,-49
2016-10-23T03:55:48.259Z,-48
2016-10-23T03:56:48.251Z,-48
2016-10-23T03:57:48.258Z,-48
2016-10-23T03:58:48.352Z,-47
2016-10-23T03:59:48.328Z,-48
2016-10-23T04:00:48.347Z,-48
2016-10-23T04:01:48.353Z,-48
2016-10-23T04:02:48.280Z,-48
2016-10-23T04:03:48.325Z,-49
2016-10-23T04:04:48.311Z,-49
2016-10-23T04:05:48.312Z,-49
2016-10-23T04:06:48.338Z,-46
2016-10-23T04:07:48.360Z,-49
2016-10-23T04:08:48.380Z,-50
2016-10-23T04:09:48.283Z,-46
2016-10-23T04:10:48.268Z,-48
2016-10-23T04:11:48.228Z,-49
2016-10-23T04:12:48.261Z,-49
2016-10-23T04:13:48.296Z,-49
2016-10-23T04:14:48.276Z,-49
2016-10-23T04:15:48.248Z,-49
2016-10-23T04:16:48.223Z,-49
2016-10-23T04:17:48.233Z,-49
2016-10-23T04:18:48.277Z,-47
2016-10-23T04:19:48.192Z,-48
2016-10-23T04:20:48.244Z,-48
2016-10-23T04:21:48.208Z,-48
2016-10-23T04:22:48.244Z,-49
2016-10-23T04:23:48.267Z,-49
2016-10-23T04:24:48.241Z,-49
2016-10-23T04:25:48.270Z,-48
2016-10-23T04:26:48.268Z,-49
2016-10-23T04:27:48.226Z,-49
2016-10-23T04:28:48.271Z,-48
2016-10-23T04:29:48.343Z,-48
2016-10-23T04:30:48.289Z,-48
2016-10-23T04:31:48.257Z,-49
2016-10-23T04:32:48.244Z,-47
2016-10-23T04:33:48.279Z,-48
2016-10-23T04:34:48.270Z,-48
2016-10-23T04:35:48.270Z,-48
2016-10-23T04:36:48.273Z,-48
2016-10-23T04:37:48.238Z,-48
2016-10-23T04:38:48.254Z,-48
2016-10-23T04:39:48.295Z,-48
2016-10-23T04:40:48.294Z,-48
2016-10-23T04:41:48.263Z,-48
2016-10-23T04:42:48.318Z,-48
2016-10-23T04:43:48.273Z,-48
2016-10-23T04:44:48.314Z,-48
2016-10-23T04:45:48.253Z,-48
2016-10-23T04:46:48.281Z,-48
2016-10-23T04:47:48.333Z,-49
2016-10-23T04:48:48.289Z,-49
2016-10-23T04:49:48.331Z,-49
2016-10-23T04:50:48.285Z,-47
2016-10-23T04:51:48.258Z,-48
2016-10-23T04:52:48.279Z,-49
2016-10-23T04:53:48.259Z,-48
2016-10-23T04:54:48.330Z,-49
2016-10-23T04:55:48.286Z,-49
2016-10-23T04:56:48.307Z,-49
2016-10-23T04:57:48.275Z,-49
2016-10-23T04:58:48.278Z,-46
2016-10-23T04:59:48.293Z,-48
2016-10-23T05:00:48.336Z,-48
2016-10-23T05:01:48.282Z,-49
2016-10-23T05:02:48.298Z,-49
2016-10-23T05:03:48.279Z,-48
2016-10-23T05:04:48.276Z,-48
2016-10-23T05:05:48.260Z,-48
2016-10-23T05:06:48.311Z,-48
2016-10-23T05:07:48.276Z,-46
2016-10-23T05:08:48.324Z,-47
2016-10-23T05:09:48.350Z,-48
2016-10-23T05:10:48.380Z,-49
2016-10-23T05:11:48.342Z,-49
2016-10-23T05:12:48.318Z,-49
2016-10-23T05:13:48.321Z,-46
2016-10-23T05:14:48.351Z,-48
2016-10-23T05:15:48.389Z,-49
2016-10-23T05:16:48.314Z,-48
2016-10-23T05:17:48.370Z,-48
2016-10-23T05:18:48.348Z,-48
2016-10-23T05:19:48.356Z,-48
2016-10-23T05:20:48.337Z,-48
2016-10-23T05:21:48.305Z,-48
2016-10-23T05:22:48.353Z,-48
2016-10-23T05:23:48.302Z,-48
2016-10-23T05:24:48.983Z,-48
2016-10-23T05:25:48.297Z,-48
2016-10-23T05:26:48.319Z,-50
2016-10-23T05:27:48.274Z,-49
2016-10-23T05:28:48.324Z,-49
2016-10-23T05:29:48.299Z,-47
2016-10-23T05:30:48.398Z,-47
2016-10-23T05:31:48.271Z,-47
2016-10-23T05:32:48.232Z,-47
2016-10-23T05:33:48.262Z,-49
2016-10-23T05:34:48.277Z,-48
2016-10-23T05:35:48.245Z,-49
2016-10-23T05:36:48.322Z,-48
2016-10-23T05:37:48.287Z,-48
2016-10-23T05:38:48.315Z,-48
2016-10-23T05:39:48.335Z,-50
2016-10-23T05:40:48.357Z,-49
2016-10-23T05:41:48.283Z,-48
2016-10-23T05:42:48.342Z,-47
2016-10-23T05:43:48.322Z,-49
2016-10-23T05:44:48.339Z,-50
2016-10-23T05:45:48.321Z,-49
2016-10-23T05:46:48.383Z,-49
2016-10-23T05:47:48.294Z,-49
2016-10-23T05:48:48.311Z,-49
2016-10-23T05:49:48.280Z,-49
2016-10-23T05:50:48.325Z,-48
2016-10-23T05:51:48.272Z,-47
2016-10-23T05:52:48.296Z,-48
2016-10-23T05:53:48.356Z,-48
2016-10-23T05:54:48.309Z,-49
2016-10-23T05:55:48.321Z,-48
2016-10-23T05:56:48.338Z,-49
2016-10-23T05:57:48.311Z,-49
2016-10-23T05:58:48.303Z,-48
2016-10-23T05:59:49.359Z,-48
2016-10-23T06:00:48.411Z,-47
2016-10-23T06:01:48.307Z,-48
2016-10-23T06:02:48.413Z,-49
2016-10-23T06:03:48.307Z,-49
2016-10-23T06:04:48.358Z,-49
2016-10-23T06:05:48.362Z,-50
2016-10-23T06:06:48.308Z,-49
2016-10-23T06:07:48.334Z,-49
2016-10-23T06:08:48.366Z,-48
2016-10-23T06:09:48.398Z,-49
2016-10-23T06:10:48.308Z,-49
2016-10-23T06:11:48.286Z,-49
2016-10-23T06:12:48.307Z,-50
2016-10-23T06:13:48.405Z,-49
2016-10-23T06:14:48.408Z,-49
2016-10-23T06:15:48.383Z,-49
2016-10-23T06:16:48.359Z,-49
2016-10-23T06:17:48.315Z,-49
2016-10-23T06:18:48.360Z,-48
2016-10-23T06:19:48.311Z,-48
2016-10-23T06:20:48.388Z,-48
2016-10-23T06:21:48.369Z,-48
2016-10-23T06:22:48.340Z,-49
2016-10-23T06:23:48.383Z,-48
2016-10-23T06:24:48.360Z,-49
2016-10-23T06:25:48.405Z,-48
2016-10-23T06:26:48.399Z,-48
2016-10-23T06:27:48.369Z,-49
2016-10-23T06:28:48.353Z,-48
2016-10-23T06:29:48.433Z,-48
2016-10-23T06:30:48.456Z,-48
2016-10-23T06:31:48.452Z,-48
2016-10-23T06:32:48.482Z,-49
2016-10-23T06:33:48.475Z,-49
2016-10-23T06:34:48.504Z,-48
2016-10-23T06:35:48.470Z,-48
2016-10-23T06:36:48.405Z,-48
2016-10-23T06:37:48.414Z,-47
2016-10-23T06:38:48.426Z,-48
2016-10-23T06:39:48.486Z,-49
2016-10-23T06:40:48.459Z,-49
2016-10-23T06:41:48.440Z,-49
2016-10-23T06:42:48.444Z,-49
2016-10-23T06:43:48.408Z,-49
2016-10-23T06:44:48.417Z,-50
2016-10-23T06:45:48.348Z,-49
2016-10-23T06:46:48.372Z,-48
2016-10-23T06:47:48.439Z,-51
2016-10-23T06:48:48.399Z,-51
2016-10-23T06:49:48.405Z,-48
2016-10-23T06:50:48.358Z,-48
2016-10-23T06:51:48.391Z,-49
2016-10-23T06:52:48.330Z,-50
2016-10-23T06:53:48.311Z,-49
2016-10-23T06:54:48.349Z,-50
2016-10-23T06:55:48.332Z,-49
2016-10-23T06:56:48.355Z,-49
2016-10-23T06:57:48.355Z,-50
2016-10-23T06:58:48.441Z,-48
2016-10-23T06:59:48.407Z,-49
2016-10-23T07:00:48.355Z,-50
2016-10-23T07:01:48.393Z,-50
2016-10-23T07:02:48.401Z,-48
2016-10-23T07:03:48.405Z,-49
2016-10-23T07:04:48.377Z,-49
2016-10-23T07:05:48.381Z,-49
2016-10-23T07:06:48.355Z,-48
2016-10-23T07:07:48.360Z,-49
2016-10-23T07:08:48.414Z,-49
2016-10-23T07:09:48.407Z,-48
2016-10-23T07:10:48.328Z,-48
2016-10-23T07:11:48.388Z,-49
2016-10-23T07:12:48.347Z,-48
2016-10-23T07:13:48.361Z,-49
2016-10-23T07:14:48.364Z,-48
2016-10-23T07:15:48.407Z,-49
2016-10-23T07:16:48.408Z,-49
2016-10-23T07:17:48.478Z,-48
2016-10-23T07:18:48.388Z,-47
2016-10-23T07:19:48.467Z,-45
2016-10-23T07:20:48.481Z,-47
2016-10-23T07:21:48.474Z,-48
2016-10-23T07:22:48.412Z,-48
2016-10-23T07:23:48.375Z,-48
2016-10-23T07:24:48.484Z,-48
2016-10-23T07:25:48.388Z,-48
2016-10-23T07:26:48.447Z,-48
2016-10-23T07:27:48.434Z,-48
2016-10-23T07:28:48.410Z,-49
2016-10-23T07:29:48.586Z,-46
2016-10-23T07:30:48.382Z,-45
2016-10-23T07:31:48.397Z,-46
2016-10-23T07:32:48.964Z,-46
2016-10-23T07:33:48.401Z,-46
2016-10-23T07:34:48.367Z,-46
2016-10-23T07:35:48.407Z,-48
2016-10-23T07:36:48.376Z,-47
2016-10-23T07:37:48.458Z,-48
2016-10-23T07:38:48.436Z,-47
2016-10-23T07:39:48.407Z,-48
2016-10-23T07:40:48.340Z,-47
2016-10-23T07:41:48.381Z,-47
2016-10-23T07:42:48.440Z,-47
2016-10-23T07:43:48.400Z,-47
2016-10-23T07:44:48.394Z,-48
2016-10-23T07:45:48.354Z,-48
2016-10-23T07:46:48.420Z,-48
2016-10-23T07:47:48.395Z,-48
2016-10-23T07:48:49.300Z,-48
2016-10-23T07:49:49.543Z,-46
2016-10-23T07:50:48.950Z,-48
2016-10-23T07:51:50.107Z,-48
2016-10-23T07:52:48.374Z,-47
2016-10-23T07:53:49.349Z,-48
2016-10-23T07:54:49.253Z,-48
2016-10-23T07:55:48.693Z,-48
2016-10-23T07:56:49.214Z,-50
2016-10-23T07:57:50.205Z,-51
2016-10-23T07:58:49.459Z,-50
2016-10-23T07:59:51.158Z,-50
2016-10-23T08:00:51.242Z,-50
2016-10-23T08:01:48.801Z,-49
2016-10-23T08:02:49.573Z,-50
2016-10-23T08:03:48.791Z,-49
2016-10-23T08:04:49.306Z,-49
2016-10-23T08:05:48.704Z,-49
2016-10-23T08:06:48.505Z,-51
2016-10-23T08:07:48.541Z,-51
2016-10-23T08:08:48.736Z,-50
2016-10-23T08:09:48.506Z,-47
2016-10-23T08:10:48.468Z,-48
2016-10-23T08:11:48.451Z,-48
2016-10-23T08:12:48.435Z,-48
2016-10-23T08:13:48.432Z,-48
2016-10-23T08:14:48.441Z,-50
2016-10-23T08:15:48.608Z,-54
2016-10-23T08:16:48.569Z,-51
2016-10-23T08:17:48.398Z,-50
2016-10-23T08:18:48.412Z,-51
2016-10-23T08:19:48.572Z,-47
2016-10-23T08:21:02.558Z,-50
2016-10-23T08:21:58.842Z,-51
2016-10-23T08:23:02.036Z,-50
2016-10-23T08:23:53.191Z,-50
2016-10-23T08:25:02.656Z,-48
2016-10-23T08:25:49.124Z,-49
2016-10-23T08:27:02.652Z,-52
2016-10-23T08:28:03.717Z,-49
2016-10-23T08:29:01.815Z,-49
2016-10-23T08:30:03.025Z,-50
2016-10-23T08:31:02.368Z,-51
2016-10-23T08:32:01.234Z,-49
2016-10-23T08:33:01.631Z,-47
2016-10-23T08:34:02.024Z,-48
2016-10-23T08:35:01.198Z,-49
2016-10-23T08:36:01.925Z,-47
2016-10-23T08:37:01.462Z,-48
2016-10-23T08:38:03.489Z,-47
2016-10-23T08:39:02.347Z,-47
2016-10-23T08:40:04.855Z,-47
2016-10-23T08:41:03.338Z,-47
2016-10-23T08:42:03.669Z,-48
2016-10-23T08:42:48.518Z,-47
2016-10-23T08:43:48.640Z,-54
2016-10-23T08:44:48.505Z,-48
2016-10-23T08:45:48.461Z,-47
2016-10-23T08:46:48.459Z,-49
2016-10-23T08:47:48.528Z,-52
2016-10-23T08:48:48.458Z,-48
2016-10-23T08:49:48.435Z,-52
2016-10-23T08:50:48.418Z,-55
2016-10-23T08:51:49.420Z,-48
2016-10-23T08:52:48.491Z,-55
2016-10-23T08:53:48.967Z,-46
2016-10-23T08:54:48.505Z,-49
2016-10-23T08:55:48.736Z,-49
2016-10-23T08:56:51.366Z,-53
2016-10-23T08:57:48.469Z,-53
2016-10-23T08:58:48.509Z,-54
2016-10-23T08:59:55.803Z,-51
2016-10-23T09:01:00.108Z,-52
2016-10-23T09:01:59.917Z,-53
2016-10-23T09:03:00.071Z,-52
2016-10-23T09:03:59.577Z,-54
2016-10-23T09:05:00.195Z,-52
2016-10-23T09:05:48.625Z,-52
2016-10-23T09:06:48.457Z,-53
2016-10-23T09:07:48.446Z,-54
2016-10-23T09:08:48.507Z,-52
2016-10-23T09:09:48.723Z,-52
2016-10-23T09:10:48.814Z,-52
2016-10-23T09:11:48.488Z,-53
2016-10-23T09:12:48.556Z,-52
2016-10-23T09:13:49.129Z,-53
2016-10-23T09:14:48.552Z,-53
2016-10-23T09:15:48.510Z,-54
2016-10-23T09:16:49.230Z,-53
2016-10-23T09:17:48.482Z,-53
2016-10-23T09:18:48.443Z,-49
2016-10-23T09:19:48.539Z,-50
2016-10-23T09:20:48.465Z,-57
2016-10-23T09:21:48.652Z,-55
2016-10-23T09:22:48.415Z,-55
2016-10-23T09:23:48.437Z,-53
2016-10-23T09:24:49.556Z,-51
2016-10-23T09:25:48.667Z,-52
2016-10-23T09:26:48.850Z,-52
2016-10-23T09:27:48.433Z,-54
2016-10-23T09:28:48.582Z,-51
2016-10-23T09:29:48.477Z,-52
2016-10-23T09:30:48.505Z,-50
2016-10-23T09:31:48.479Z,-51
2016-10-23T09:32:48.504Z,-52
2016-10-23T09:33:48.500Z,-53
2016-10-23T09:34:48.516Z,-54
2016-10-23T09:35:48.525Z,-46
2016-10-23T09:36:48.766Z,-48
2016-10-23T09:37:48.436Z,-56
2016-10-23T09:38:48.843Z,-52
2016-10-23T09:39:48.466Z,-52
2016-10-23T09:40:48.533Z,-52
2016-10-23T09:41:48.466Z,-51
2016-10-23T09:42:48.532Z,-52
2016-10-23T09:43:48.502Z,-54
2016-10-23T09:44:48.440Z,-54
2016-10-23T09:45:48.558Z,-54
2016-10-23T09:46:48.629Z,-54
2016-10-23T09:47:49.396Z,-54
2016-10-23T09:48:48.672Z,-54
2016-10-23T09:49:48.439Z,-50
2016-10-23T09:50:48.501Z,-53
2016-10-23T09:51:49.233Z,-53
2016-10-23T09:52:48.496Z,-53
2016-10-23T09:53:49.003Z,-51
2016-10-23T09:54:48.825Z,-55
2016-10-23T09:55:49.228Z,-53
2016-10-23T09:56:49.133Z,-52
2016-10-23T09:57:51.006Z,-51
2016-10-23T09:58:50.080Z,-56
2016-10-23T09:59:50.599Z,-55
2016-10-23T10:00:52.377Z,-52
2016-10-23T10:01:49.213Z,-53
2016-10-23T10:02:48.540Z,-51
2016-10-23T10:03:48.846Z,-51
2016-10-23T10:04:48.546Z,-46
2016-10-23T10:05:48.529Z,-55
2016-10-23T10:06:48.852Z,-52
2016-10-23T10:07:48.762Z,-51
2016-10-23T10:08:48.954Z,-53
2016-10-23T10:09:48.489Z,-49
2016-10-23T10:10:48.766Z,-47
2016-10-23T10:11:48.738Z,-48
2016-10-23T10:12:48.938Z,-46
2016-10-23T10:13:48.523Z,-48
2016-10-23T10:14:48.529Z,-50
2016-10-23T10:15:48.488Z,-53
2016-10-23T10:16:48.526Z,-53
2016-10-23T10:17:48.601Z,-52
2016-10-23T10:18:48.481Z,-53
2016-10-23T10:19:48.498Z,-52
2016-10-23T10:20:48.552Z,-46
2016-10-23T10:21:48.764Z,-48
2016-10-23T10:22:48.524Z,-49
2016-10-23T10:23:48.596Z,-48
2016-10-23T10:24:48.527Z,-48
2016-10-23T10:25:48.563Z,-48
2016-10-23T10:26:48.498Z,-48
2016-10-23T10:27:48.536Z,-48
2016-10-23T10:28:48.647Z,-47
2016-10-23T10:29:48.555Z,-49
2016-10-23T10:30:48.584Z,-50
2016-10-23T10:31:49.041Z,-47
2016-10-23T10:32:49.026Z,-48
2016-10-23T10:33:48.569Z,-50
2016-10-23T10:34:48.512Z,-49
2016-10-23T10:35:48.520Z,-49
2016-10-23T10:36:48.540Z,-48
2016-10-23T10:37:48.491Z,-49
2016-10-23T10:38:48.949Z,-49
2016-10-23T10:39:48.830Z,-49
2016-10-23T10:40:48.764Z,-49
2016-10-23T10:41:49.208Z,-49
2016-10-23T10:42:48.559Z,-49
2016-10-23T10:43:48.567Z,-49
2016-10-23T10:44:48.732Z,-49
2016-10-23T10:45:48.738Z,-48
2016-10-23T10:46:49.024Z,-48
2016-10-23T10:47:51.512Z,-49
2016-10-23T10:48:49.413Z,-50
2016-10-23T10:49:48.593Z,-50
2016-10-23T10:50:48.660Z,-49
2016-10-23T10:51:48.624Z,-49
2016-10-23T10:52:48.584Z,-50
2016-10-23T10:53:48.984Z,-45
2016-10-23T10:54:48.609Z,-49
2016-10-23T10:55:49.029Z,-50
2016-10-23T10:56:48.632Z,-50
2016-10-23T10:57:48.585Z,-48
2016-10-23T10:58:49.137Z,-47
2016-10-23T10:59:48.572Z,-49
2016-10-23T11:00:48.693Z,-49
2016-10-23T11:01:48.893Z,-49
2016-10-23T11:02:49.220Z,-49
2016-10-23T11:03:48.806Z,-49
2016-10-23T11:04:48.588Z,-48
2016-10-23T11:05:48.680Z,-48
2016-10-23T11:06:49.061Z,-51
2016-10-23T11:07:48.625Z,-49
2016-10-23T11:08:48.561Z,-49
2016-10-23T11:09:49.451Z,-48
2016-10-23T11:10:48.928Z,-50
2016-10-23T11:11:49.300Z,-48
2016-10-23T11:12:48.587Z,-50
2016-10-23T11:13:48.737Z,-49
2016-10-23T11:14:48.806Z,-48
2016-10-23T11:15:48.673Z,-51
2016-10-23T11:16:48.952Z,-50
2016-10-23T11:17:49.374Z,-48
2016-10-23T11:18:49.069Z,-49
2016-10-23T11:19:48.862Z,-49
2016-10-23T11:20:49.121Z,-46
2016-10-23T11:21:48.902Z,-47
2016-10-23T11:22:48.686Z,-44
2016-10-23T11:23:49.334Z,-48
2016-10-23T11:24:48.873Z,-49
2016-10-23T11:25:48.597Z,-46
2016-10-23T11:26:49.765Z,-54
2016-10-23T11:27:49.224Z,-50
2016-10-23T11:28:48.662Z,-48
2016-10-23T11:29:48.829Z,-50
2016-10-23T11:30:49.097Z,-50
2016-10-23T11:31:48.597Z,-48
2016-10-23T11:32:49.062Z,-48
2016-10-23T11:33:48.721Z,-48
2016-10-23T11:34:48.763Z,-49
2016-10-23T11:35:48.579Z,-49
2016-10-23T11:36:48.590Z,-49
2016-10-23T11:37:48.659Z,-51
2016-10-23T11:38:48.694Z,-48
2016-10-23T11:39:49.234Z,-49
2016-10-23T11:40:48.604Z,-47
2016-10-23T11:41:48.715Z,-48
2016-10-23T11:42:48.661Z,-49
2016-10-23T11:43:48.609Z,-48
2016-10-23T11:44:48.635Z,-48
2016-10-23T11:45:48.650Z,-51
2016-10-23T11:46:48.614Z,-48
2016-10-23T11:47:48.605Z,-48
2016-10-23T11:48:48.917Z,-46
2016-10-23T11:49:48.642Z,-46
2016-10-23T11:50:48.654Z,-48
2016-10-23T11:51:48.720Z,-47
2016-10-23T11:52:48.581Z,-47
2016-10-23T11:53:49.011Z,-49
2016-10-23T11:54:49.058Z,-48
2016-10-23T11:55:48.678Z,-49
2016-10-23T11:56:48.618Z,-48
2016-10-23T11:57:49.087Z,-48
2016-10-23T11:58:48.602Z,-47
2016-10-23T11:59:48.840Z,-47
2016-10-23T12:00:48.646Z,-49
2016-10-23T12:01:48.714Z,-46
2016-10-23T12:02:48.572Z,-47
2016-10-23T12:03:48.950Z,-49
2016-10-23T12:04:48.563Z,-49
2016-10-23T12:05:48.664Z,-50
2016-10-23T12:06:48.671Z,-50
2016-10-23T12:07:48.688Z,-55
2016-10-23T12:08:48.678Z,-51
2016-10-23T12:09:48.668Z,-54
2016-10-23T12:10:48.895Z,-54
2016-10-23T12:11:48.661Z,-49
2016-10-23T12:12:48.608Z,-49
2016-10-23T12:13:48.720Z,-55
2016-10-23T12:14:48.656Z,-50
2016-10-23T12:15:49.134Z,-57
2016-10-23T12:16:49.484Z,-55
2016-10-23T12:17:48.743Z,-52
2016-10-23T12:18:48.648Z,-48
2016-10-23T12:19:49.345Z,-56
2016-10-23T12:20:49.896Z,-53
2016-10-23T12:21:48.624Z,-48
2016-10-23T12:22:49.040Z,-48
2016-10-23T12:23:48.981Z,-51
2016-10-23T12:24:48.688Z,-52
2016-10-23T12:25:49.243Z,-57
2016-10-23T12:26:49.647Z,-54
2016-10-23T12:27:49.411Z,-56
2016-10-23T12:28:49.967Z,-54
2016-10-23T12:29:48.892Z,-55
2016-10-23T12:30:48.789Z,-53
2016-10-23T12:31:49.430Z,-55
2016-10-23T12:32:49.353Z,-54
2016-10-23T12:33:49.171Z,-54
2016-10-23T12:34:48.619Z,-53
2016-10-23T12:35:48.621Z,-57
2016-10-23T12:36:48.584Z,-56
2016-10-23T12:37:50.016Z,-54
2016-10-23T12:38:48.581Z,-55
2016-10-23T12:39:48.565Z,-58
2016-10-23T12:40:48.642Z,-53
2016-10-23T12:41:49.237Z,-55
2016-10-23T12:42:49.238Z,-55
2016-10-23T12:43:49.115Z,-58
2016-10-23T12:44:48.582Z,-54
2016-10-23T12:45:49.304Z,-56
2016-10-23T12:46:49.412Z,-57
2016-10-23T12:47:48.614Z,-56
2016-10-23T12:48:48.588Z,-58
2016-10-23T12:49:48.571Z,-55
2016-10-23T12:50:48.594Z,-57
2016-10-23T12:51:48.982Z,-57
2016-10-23T12:52:48.680Z,-57
2016-10-23T12:53:48.703Z,-58
2016-10-23T12:54:48.631Z,-55
2016-10-23T12:55:48.624Z,-46
2016-10-23T12:56:48.646Z,-48
2016-10-23T12:57:48.647Z,-50
2016-10-23T12:58:48.655Z,-46
2016-10-23T12:59:48.655Z,-48
2016-10-23T13:00:48.645Z,-49
2016-10-23T13:01:48.736Z,-49
2016-10-23T13:02:49.119Z,-51
2016-10-23T13:03:48.661Z,-50
2016-10-23T13:04:48.723Z,-51
2016-10-23T13:05:48.664Z,-49
2016-10-23T13:06:48.651Z,-49
2016-10-23T13:07:48.727Z,-51
2016-10-23T13:08:48.702Z,-49
2016-10-23T13:09:48.717Z,-51
2016-10-23T13:10:48.785Z,-50
2016-10-23T13:11:48.668Z,-50
2016-10-23T13:12:48.652Z,-48
2016-10-23T13:13:48.658Z,-49
2016-10-23T13:14:48.631Z,-49
2016-10-23T13:15:48.783Z,-49
2016-10-23T13:16:48.656Z,-51
2016-10-23T13:17:48.797Z,-49
2016-10-23T13:18:48.950Z,-48
2016-10-23T13:19:48.961Z,-52
2016-10-23T13:20:48.710Z,-49
2016-10-23T13:21:49.734Z,-50
2016-10-23T13:22:48.668Z,-50
2016-10-23T13:23:48.760Z,-48
2016-10-23T13:24:48.712Z,-51
2016-10-23T13:25:48.932Z,-48
2016-10-23T13:26:48.843Z,-48
2016-10-23T13:27:48.664Z,-51
2016-10-23T13:28:48.703Z,-49
2016-10-23T13:29:48.765Z,-51
2016-10-23T13:30:48.752Z,-49
2016-10-23T13:31:48.723Z,-49
2016-10-23T13:32:48.738Z,-47
2016-10-23T13:33:48.634Z,-48
2016-10-23T13:34:48.873Z,-49
2016-10-23T13:35:48.771Z,-49
2016-10-23T13:36:49.180Z,-49
2016-10-23T13:37:48.818Z,-55
2016-10-23T13:38:48.704Z,-53
2016-10-23T13:39:48.668Z,-46
2016-10-23T13:40:48.837Z,-52
2016-10-23T13:41:50.294Z,-53
2016-10-23T13:42:48.723Z,-51
2016-10-23T13:43:48.809Z,-51
2016-10-23T13:44:48.866Z,-52
2016-10-23T13:45:48.786Z,-51
2016-10-23T13:46:48.735Z,-52